Time;durP1;ratioP1;P1;durP2;ratioP2;P2;SDS_P1;SDS_P2;PMS_P1;PMS_P2;Temp;Humidity;BMP_temperature;BMP_pressure;BME280_temperature;BME280_humidity;BME280_pressure;Samples;Min_cycle;Max_cycle;Signal;HPM_P1;HPM_P2
2022/06/13 00:01:40;;;;;;;1.20;1.10;;;26.50;52.20;;;;;;5072627;28;20174;-81
2022/06/13 00:04:07;;;;;;;1.20;1.10;;;26.50;52.30;;;;;;5072857;28;20234;-81
2022/06/13 00:06:34;;;;;;;1.40;1.30;;;26.50;52.20;;;;;;5071831;28;20222;-81
2022/06/13 00:09:00;;;;;;;1.57;1.00;;;26.50;52.30;;;;;;5073117;28;20409;-81
2022/06/13 00:11:27;;;;;;;1.40;1.30;;;26.50;52.30;;;;;;5072392;28;20456;-81
2022/06/13 00:13:56;;;;;;;1.50;1.23;;;26.50;52.30;;;;;;5073261;28;20457;-81
2022/06/13 00:16:23;;;;;;;1.37;1.27;;;26.50;52.30;;;;;;5072903;28;20206;-81
2022/06/13 00:18:49;;;;;;;1.10;1.00;;;26.60;52.30;;;;;;5072863;28;20460;-81
2022/06/13 00:21:20;;;;;;;1.43;1.20;;;26.50;52.30;;;;;;5074571;28;20410;-81
2022/06/13 00:23:47;;;;;;;1.50;1.20;;;26.60;52.30;;;;;;5074929;28;20181;-81
2022/06/13 00:26:13;;;;;;;1.77;1.67;;;26.50;52.30;;;;;;5072742;28;20483;-81
2022/06/13 00:28:40;;;;;;;1.10;1.00;;;26.50;52.30;;;;;;5073971;28;20412;-81
2022/06/13 00:31:06;;;;;;;1.00;0.90;;;26.60;52.30;;;;;;5073827;28;20421;-80
2022/06/13 00:33:32;;;;;;;1.60;1.10;;;26.50;52.30;;;;;;5072928;28;20443;-81
2022/06/13 00:35:58;;;;;;;1.20;1.10;;;26.50;52.30;;;;;;5054044;28;20175;-81
2022/06/13 00:38:23;;;;;;;1.33;1.23;;;26.50;52.30;;;;;;5072026;28;20440;-81
2022/06/13 00:40:51;;;;;;;1.40;1.30;;;26.60;52.30;;;;;;5070115;28;20175;-81
2022/06/13 00:43:17;;;;;;;1.50;1.30;;;26.50;52.30;;;;;;5068304;28;20783;-82
2022/06/13 00:45:43;;;;;;;1.33;1.13;;;26.50;52.30;;;;;;5068301;28;20410;-82
2022/06/13 00:48:15;;;;;;;1.53;1.20;;;26.50;52.30;;;;;;5070667;28;20171;-82
2022/06/13 00:50:55;;;;;;;1.30;1.20;;;26.60;52.30;;;;;;5068698;28;20512;-82
2022/06/13 00:53:31;;;;;;;1.40;1.30;;;26.50;52.30;;;;;;5068327;28;20440;-82
2022/06/13 00:56:05;;;;;;;1.33;1.17;;;26.60;52.30;;;;;;5069801;28;20425;-82
2022/06/13 00:58:40;;;;;;;1.30;1.20;;;26.50;52.30;;;;;;5069616;28;20414;-81
2022/06/13 01:01:06;;;;;;;1.40;1.27;;;26.50;52.30;;;;;;5069738;28;20810;-81
2022/06/13 01:03:34;;;;;;;1.43;1.33;;;26.50;52.90;;;;;;5071511;28;20500;-82
2022/06/13 01:06:04;;;;;;;1.40;1.20;;;26.50;52.30;;;;;;5070594;28;20457;-83
2022/06/13 01:08:33;;;;;;;1.63;1.30;;;26.50;52.30;;;;;;5071750;28;20422;-82
2022/06/13 01:11:17;;;;;;;2.00;1.30;;;26.50;52.30;;;;;;5071035;28;20829;-82
2022/06/13 01:13:49;;;;;;;1.30;1.20;;;26.50;52.30;;;;;;5072672;28;20510;-82
2022/06/13 01:16:39;;;;;;;1.30;1.20;;;26.60;52.40;;;;;;5073454;28;20392;-82
2022/06/13 01:19:25;;;;;;;1.40;1.20;;;26.50;52.30;;;;;;5072180;28;20423;-82
2022/06/13 01:22:41;;;;;;;1.40;1.30;;;26.50;52.30;;;;;;5033223;28;20440;-82
2022/06/13 01:25:28;;;;;;;1.10;0.97;;;26.50;52.30;;;;;;4997660;28;20420;-82
2022/06/13 01:28:17;;;;;;;1.30;1.10;;;26.50;52.40;;;;;;5013043;28;20408;-81
2022/06/13 01:31:03;;;;;;;1.30;1.20;;;26.50;52.40;;;;;;4996666;28;20416;-81
2022/06/13 01:33:57;;;;;;;1.30;1.20;;;26.50;52.40;;;;;;5010281;28;20405;-81
2022/06/13 01:36:38;;;;;;;1.17;1.07;;;26.50;52.40;;;;;;4995487;28;20440;-82
2022/06/13 01:39:35;;;;;;;1.30;1.20;;;26.50;52.40;;;;;;4999515;28;20439;-82
2022/06/13 01:42:35;;;;;;;1.40;1.30;;;26.50;52.40;;;;;;4997269;28;20448;-82
2022/06/13 01:45:28;;;;;;;1.40;1.00;;;26.50;52.40;;;;;;4996533;28;20432;-82
2022/06/13 01:48:17;;;;;;;1.30;1.20;;;26.50;52.40;;;;;;5012938;28;20511;-82
2022/06/13 01:50:52;;;;;;;1.50;1.40;;;26.50;52.40;;;;;;5012705;28;20965;-82
2022/06/13 01:53:40;;;;;;;1.30;1.20;;;26.50;52.40;;;;;;4997070;28;20454;-82
2022/06/13 01:56:09;;;;;;;1.30;1.20;;;26.50;52.40;;;;;;5048697;28;20615;-81
2022/06/13 01:58:41;;;;;;;1.20;1.10;;;26.50;52.40;;;;;;5074608;28;20478;-82
2022/06/13 02:01:23;;;;;;;1.30;1.20;;;26.50;52.40;;;;;;5073908;28;20433;-82
2022/06/13 02:03:58;;;;;;;1.00;0.87;;;26.50;52.40;;;;;;5073605;28;20453;-82
2022/06/13 02:06:37;;;;;;;1.50;1.40;;;26.50;52.40;;;;;;5057916;28;20436;-82
2022/06/13 02:09:24;;;;;;;1.20;1.10;;;26.50;52.40;;;;;;5071805;28;20429;-82
2022/06/13 02:11:52;;;;;;;1.20;1.10;;;26.50;52.40;;;;;;5074144;28;20500;-81
2022/06/13 02:14:28;;;;;;;1.40;1.30;;;26.50;52.40;;;;;;5073329;28;20525;-81
2022/06/13 02:16:58;;;;;;;1.40;1.27;;;26.50;52.40;;;;;;5074650;28;20429;-80
2022/06/13 02:19:32;;;;;;;1.13;1.03;;;26.50;52.40;;;;;;5074545;28;20417;-81
2022/06/13 02:22:16;;;;;;;1.20;1.10;;;26.50;52.40;;;;;;5076329;28;20431;-81
2022/06/13 02:24:49;;;;;;;1.83;1.00;;;26.50;52.40;;;;;;5075042;28;20445;-81
2022/06/13 02:27:18;;;;;;;1.20;1.10;;;26.50;52.40;;;;;;5074294;28;20426;-81
2022/06/13 02:29:51;;;;;;;1.20;1.10;;;26.50;52.90;;;;;;5075869;28;20437;-81
2022/06/13 02:32:24;;;;;;;1.67;1.40;;;26.50;52.40;;;;;;5073077;28;20429;-82
2022/06/13 02:35:00;;;;;;;1.10;1.00;;;26.50;52.90;;;;;;5073857;28;20441;-81
2022/06/13 02:37:37;;;;;;;1.70;1.40;;;26.50;52.40;;;;;;5075185;28;20405;-81
2022/06/13 02:40:12;;;;;;;1.33;1.23;;;26.50;52.30;;;;;;5071514;28;20421;-81
2022/06/13 02:42:47;;;;;;;1.73;1.23;;;26.50;52.30;;;;;;5072878;28;20394;-81
2022/06/13 02:45:25;;;;;;;1.67;1.57;;;26.50;52.40;;;;;;5071146;28;20420;-81
2022/06/13 02:48:03;;;;;;;1.30;1.00;;;26.50;52.40;;;;;;5071123;28;20915;-81
2022/06/13 02:50:57;;;;;;;1.23;1.10;;;26.50;52.30;;;;;;5070708;28;20425;-81
2022/06/13 02:53:35;;;;;;;1.40;1.10;;;26.50;52.40;;;;;;5072572;28;20417;-81
2022/06/13 02:56:32;;;;;;;1.17;1.07;;;26.50;52.40;;;;;;5072947;28;20453;-81
2022/06/13 02:59:18;;;;;;;1.87;1.17;;;26.50;52.40;;;;;;5072245;28;20432;-81
2022/06/13 03:01:47;;;;;;;1.50;1.40;;;26.50;52.40;;;;;;5072227;28;20436;-81
2022/06/13 03:04:19;;;;;;;1.10;1.00;;;26.50;52.40;;;;;;5072914;28;20418;-82
2022/06/13 03:07:03;;;;;;;1.47;1.27;;;26.50;52.40;;;;;;5073446;28;20418;-82
2022/06/13 03:09:49;;;;;;;1.43;1.33;;;26.50;52.40;;;;;;5074276;28;20402;-82
2022/06/13 03:12:34;;;;;;;1.47;1.13;;;26.50;52.40;;;;;;5073462;28;20467;-82
2022/06/13 03:15:38;;;;;;;1.30;1.20;;;26.50;52.40;;;;;;5073990;28;20543;-82
2022/06/13 03:18:27;;;;;;;1.07;0.97;;;26.50;52.40;;;;;;5065506;28;20425;-82
2022/06/13 03:21:04;;;;;;;1.40;1.20;;;26.50;52.40;;;;;;5075463;28;20468;-82
2022/06/13 03:23:39;;;;;;;1.37;1.27;;;26.50;52.40;;;;;;5074886;28;20408;-82
2022/06/13 03:26:17;;;;;;;1.30;0.90;;;26.50;52.40;;;;;;5073425;28;20432;-82
2022/06/13 03:28:54;;;;;;;1.20;1.10;;;26.50;52.40;;;;;;5075258;28;20429;-82
2022/06/13 03:31:42;;;;;;;1.27;1.17;;;26.50;52.40;;;;;;5073837;28;20382;-82
2022/06/13 03:34:14;;;;;;;1.27;1.17;;;26.50;52.40;;;;;;5072245;28;20453;-81
2022/06/13 03:36:46;;;;;;;1.20;1.00;;;26.50;52.40;;;;;;5056905;28;20765;-82
2022/06/13 03:39:40;;;;;;;1.17;1.07;;;26.50;52.40;;;;;;5070639;28;20396;-82
2022/06/13 03:42:16;;;;;;;1.30;1.07;;;26.50;52.40;;;;;;5069942;28;20409;-82
2022/06/13 03:44:45;;;;;;;1.10;1.00;;;26.50;52.40;;;;;;5071744;28;20417;-82
2022/06/13 03:47:21;;;;;;;1.33;1.23;;;26.50;53.00;;;;;;5069996;28;20418;-82
2022/06/13 03:49:56;;;;;;;1.10;1.00;;;26.50;52.40;;;;;;5070834;28;20419;-82
2022/06/13 03:52:25;;;;;;;1.40;1.03;;;26.50;52.40;;;;;;5071747;28;20417;-82
2022/06/13 03:54:58;;;;;;;1.13;1.00;;;26.50;52.40;;;;;;5071800;28;20449;-82
2022/06/13 03:57:28;;;;;;;1.27;1.17;;;26.50;52.40;;;;;;5071394;28;20410;-82
2022/06/13 04:00:04;;;;;;;1.10;1.00;;;26.50;52.40;;;;;;5071080;28;20448;-82
2022/06/13 04:02:34;;;;;;;1.13;1.03;;;26.50;52.40;;;;;;5071190;28;20414;-82
2022/06/13 04:05:00;;;;;;;1.20;1.10;;;26.50;52.40;;;;;;5072192;28;20437;-83
2022/06/13 04:07:28;;;;;;;1.23;1.13;;;26.50;52.40;;;;;;5072132;28;20420;-83
2022/06/13 04:10:00;;;;;;;1.30;1.20;;;26.50;52.40;;;;;;5071434;28;20413;-82
2022/06/13 04:12:53;;;;;;;1.00;0.90;;;26.50;52.40;;;;;;5071026;28;20432;-81
2022/06/13 04:15:55;;;;;;;1.23;1.13;;;26.60;52.40;;;;;;5071961;28;20488;-81
2022/06/13 04:18:59;;;;;;;1.10;1.00;;;26.60;52.40;;;;;;5071527;28;20443;-81
2022/06/13 04:21:40;;;;;;;0.90;0.80;;;26.60;52.50;;;;;;4996096;28;20479;-81
2022/06/13 04:24:20;;;;;;;1.33;1.20;;;26.50;52.40;;;;;;4994815;28;20442;-82
2022/06/13 04:27:23;;;;;;;1.13;1.03;;;26.50;52.40;;;;;;4996640;28;20419;-82
2022/06/13 04:30:01;;;;;;;1.30;1.10;;;26.50;52.40;;;;;;4957110;29;20464;-82
2022/06/13 04:32:38;;;;;;;1.23;1.03;;;26.50;52.40;;;;;;4953913;29;20414;-82
2022/06/13 04:35:05;;;;;;;1.20;1.10;;;26.50;52.40;;;;;;4957238;29;20461;-82
2022/06/13 04:37:33;;;;;;;1.33;1.23;;;26.50;52.50;;;;;;4970891;29;20418;-82
2022/06/13 04:40:04;;;;;;;1.20;1.00;;;26.50;52.40;;;;;;4953790;29;20490;-82
2022/06/13 04:42:35;;;;;;;1.20;1.07;;;26.50;52.40;;;;;;4938629;29;20535;-81
2022/06/13 04:45:18;;;;;;;1.30;1.20;;;26.50;52.40;;;;;;4970514;29;20477;-82
2022/06/13 04:47:47;;;;;;;1.03;0.93;;;26.60;52.50;;;;;;4970029;29;20426;-81
2022/06/13 04:50:20;;;;;;;1.20;0.80;;;26.50;52.40;;;;;;4954856;29;20430;-81
2022/06/13 04:52:48;;;;;;;1.10;1.00;;;26.50;52.40;;;;;;4999473;28;20428;-81
2022/06/13 04:55:32;;;;;;;1.10;1.00;;;26.50;52.40;;;;;;5013373;28;20482;-81
2022/06/13 04:57:59;;;;;;;1.10;0.93;;;26.50;52.40;;;;;;5013539;28;20470;-81
2022/06/13 05:00:24;;;;;;;1.30;1.20;;;26.60;52.40;;;;;;5013296;28;20450;-81
2022/06/13 05:02:55;;;;;;;1.60;1.50;;;26.60;52.50;;;;;;5013709;28;20430;-81
2022/06/13 05:05:33;;;;;;;1.10;1.00;;;26.50;52.40;;;;;;5044256;28;20195;-81
2022/06/13 05:08:08;;;;;;;1.40;1.00;;;26.60;52.40;;;;;;5072315;28;20441;-81
2022/06/13 05:10:37;;;;;;;1.10;1.00;;;26.60;52.40;;;;;;5072300;28;20397;-81
2022/06/13 05:13:04;;;;;;;1.10;1.00;;;26.60;52.40;;;;;;5071625;28;20409;-81
2022/06/13 05:15:32;;;;;;;1.20;1.10;;;26.60;52.40;;;;;;5072381;28;20461;-81
2022/06/13 05:18:10;;;;;;;1.10;1.00;;;26.60;52.40;;;;;;5073619;28;20432;-82
2022/06/13 05:20:51;;;;;;;1.00;0.90;;;26.60;52.40;;;;;;5074047;28;20416;-81
2022/06/13 05:23:33;;;;;;;1.00;0.90;;;26.60;52.40;;;;;;5072523;28;20402;-81
2022/06/13 05:26:00;;;;;;;1.10;1.00;;;26.60;52.40;;;;;;5072942;28;20505;-82
2022/06/13 05:28:30;;;;;;;1.10;1.00;;;26.60;52.40;;;;;;5071729;28;20485;-82
2022/06/13 05:31:00;;;;;;;1.10;0.90;;;26.60;52.40;;;;;;5071800;28;20412;-82
2022/06/13 05:33:30;;;;;;;1.17;1.07;;;26.60;52.40;;;;;;5071569;28;20469;-82
2022/06/13 05:35:57;;;;;;;1.30;1.10;;;26.60;52.40;;;;;;5071061;28;20436;-81
2022/06/13 05:38:34;;;;;;;1.17;1.03;;;26.60;52.40;;;;;;5052362;28;20410;-81
2022/06/13 05:41:00;;;;;;;1.00;0.90;;;26.60;52.40;;;;;;5069822;28;20394;-81
2022/06/13 05:43:26;;;;;;;1.20;1.00;;;26.60;52.40;;;;;;5068910;28;20421;-82
2022/06/13 05:45:52;;;;;;;1.40;1.27;;;26.60;52.40;;;;;;5069119;28;20175;-81
2022/06/13 05:48:21;;;;;;;1.20;0.93;;;26.60;52.40;;;;;;5068573;28;20504;-80
2022/06/13 05:50:48;;;;;;;1.40;1.20;;;26.60;52.40;;;;;;5067696;28;20413;-81
2022/06/13 05:53:16;;;;;;;1.10;1.00;;;26.60;52.40;;;;;;5068529;28;20421;-81
2022/06/13 05:55:43;;;;;;;1.40;1.10;;;26.60;52.30;;;;;;5069891;28;20453;-81
2022/06/13 05:58:14;;;;;;;1.20;1.07;;;26.60;52.30;;;;;;5069316;28;20489;-81
2022/06/13 06:00:46;;;;;;;1.27;1.17;;;26.60;52.30;;;;;;5069723;28;20803;-81
2022/06/13 06:03:13;;;;;;;1.30;1.00;;;26.60;52.30;;;;;;5070155;28;20421;-81
2022/06/13 06:05:40;;;;;;;1.23;1.13;;;26.60;52.30;;;;;;5070886;28;20425;-81
2022/06/13 06:08:26;;;;;;;1.20;1.10;;;26.60;52.30;;;;;;5070210;28;20421;-81
2022/06/13 06:10:54;;;;;;;1.30;1.20;;;26.70;52.40;;;;;;5069124;28;20413;-81
2022/06/13 06:13:20;;;;;;;1.30;0.90;;;26.60;52.30;;;;;;5070847;28;20504;-81
2022/06/13 06:15:48;;;;;;;1.10;1.00;;;26.60;52.30;;;;;;5069073;28;20465;-81
2022/06/13 06:18:15;;;;;;;1.10;1.00;;;26.70;52.40;;;;;;5072801;28;20423;-81
2022/06/13 06:20:41;;;;;;;1.03;0.90;;;26.70;52.40;;;;;;5071216;28;20413;-82
2022/06/13 06:23:09;;;;;;;1.23;1.07;;;26.70;52.40;;;;;;5070395;28;20462;-81
2022/06/13 06:25:35;;;;;;;1.17;1.07;;;26.70;52.40;;;;;;5075078;28;20413;-81
2022/06/13 06:28:03;;;;;;;1.57;1.10;;;26.70;52.40;;;;;;5074824;28;20421;-81
2022/06/13 06:30:30;;;;;;;1.20;1.10;;;26.70;52.40;;;;;;5073214;28;20421;-81
2022/06/13 06:32:57;;;;;;;1.03;0.93;;;26.70;52.40;;;;;;5076510;28;20421;-82
2022/06/13 06:35:28;;;;;;;1.00;0.90;;;26.70;52.40;;;;;;5072411;28;20464;-82
2022/06/13 06:37:55;;;;;;;1.13;1.03;;;26.70;52.40;;;;;;5072320;28;20410;-82
2022/06/13 06:40:23;;;;;;;1.20;1.10;;;26.70;52.40;;;;;;5071499;28;20413;-82
2022/06/13 06:42:49;;;;;;;1.20;1.00;;;26.70;52.40;;;;;;5071077;28;20417;-82
2022/06/13 06:45:15;;;;;;;1.00;0.90;;;26.70;52.40;;;;;;5071140;28;20428;-82
2022/06/13 06:47:41;;;;;;;1.10;1.00;;;26.60;52.30;;;;;;5072980;28;20413;-82
2022/06/13 06:50:22;;;;;;;1.20;1.10;;;26.70;52.40;;;;;;5071424;28;20186;-82
2022/06/13 06:52:49;;;;;;;1.10;1.00;;;26.70;52.40;;;;;;5072539;28;20493;-82
2022/06/13 07:00:47;;;;;;;1.30;1.00;;;26.70;52.40;;;;;;5073519;28;20396;-82
2022/06/13 07:03:14;;;;;;;1.00;0.90;;;26.70;52.40;;;;;;5072444;28;20405;-82
2022/06/13 07:05:39;;;;;;;1.20;1.10;;;26.60;52.40;;;;;;5072766;28;20437;-82
2022/06/13 07:08:05;;;;;;;2.07;1.00;;;26.70;52.40;;;;;;5073587;28;20417;-82
2022/06/13 07:10:31;;;;;;;1.23;0.90;;;26.70;52.40;;;;;;5074964;28;20175;-82
2022/06/13 07:12:57;;;;;;;1.30;1.20;;;26.70;52.40;;;;;;5074221;28;20187;-82
2022/06/13 07:15:23;;;;;;;2.13;1.00;;;26.70;52.40;;;;;;5074992;28;20491;-82
2022/06/13 07:17:49;;;;;;;1.17;1.07;;;26.70;52.40;;;;;;5075200;28;20163;-82
2022/06/13 07:20:16;;;;;;;1.10;0.97;;;26.70;52.40;;;;;;5074910;28;20504;-82
2022/06/13 07:22:50;;;;;;;1.20;1.03;;;26.70;52.40;;;;;;5074239;28;20412;-82
2022/06/13 07:25:21;;;;;;;1.07;0.90;;;26.60;52.40;;;;;;5074333;28;20436;-82
2022/06/13 07:27:47;;;;;;;1.00;0.90;;;26.70;52.40;;;;;;5074855;28;20418;-82
2022/06/13 07:30:15;;;;;;;1.03;0.93;;;26.70;52.40;;;;;;5075547;28;20469;-82
2022/06/13 07:32:43;;;;;;;1.10;0.90;;;26.70;52.40;;;;;;5075868;28;20167;-82
2022/06/13 07:35:11;;;;;;;1.17;0.93;;;26.70;52.40;;;;;;5074509;28;20464;-82
2022/06/13 07:40:21;;;;;;;1.20;1.10;;;26.70;52.50;;;;;;5076454;28;20393;-82
2022/06/13 07:42:51;;;;;;;1.00;0.90;;;26.70;52.50;;;;;;5076020;28;20421;-82
2022/06/13 07:45:27;;;;;;;1.20;1.00;;;26.70;52.50;;;;;;5076550;28;20448;-82
2022/06/13 07:47:54;;;;;;;1.20;1.00;;;26.70;52.50;;;;;;5076118;28;20405;-82
2022/06/13 07:50:24;;;;;;;1.10;1.00;;;26.70;52.50;;;;;;5076563;28;20445;-82
2022/06/13 07:52:51;;;;;;;1.10;1.00;;;26.60;52.40;;;;;;5077185;28;20773;-82
2022/06/13 07:55:18;;;;;;;1.50;1.07;;;26.70;52.50;;;;;;5077080;28;20437;-82
2022/06/13 07:57:46;;;;;;;1.20;1.10;;;26.60;52.40;;;;;;5076337;28;20497;-82
2022/06/13 08:00:21;;;;;;;1.00;0.90;;;26.70;52.50;;;;;;5076282;28;20433;-82
2022/06/13 08:02:47;;;;;;;1.10;0.83;;;26.60;52.40;;;;;;5076563;28;20401;-82
2022/06/13 08:05:13;;;;;;;1.20;0.97;;;26.60;52.40;;;;;;5077410;28;20423;-82
2022/06/13 08:07:39;;;;;;;1.00;0.90;;;26.60;52.40;;;;;;5077164;28;20417;-82
2022/06/13 08:10:05;;;;;;;1.00;0.90;;;26.60;52.50;;;;;;5076904;28;20217;-82
2022/06/13 08:12:31;;;;;;;1.00;0.90;;;26.60;52.40;;;;;;5077321;28;20423;-82
2022/06/13 08:14:57;;;;;;;1.30;1.10;;;26.60;52.40;;;;;;5078191;28;20456;-82
2022/06/13 08:17:23;;;;;;;1.10;0.90;;;26.70;52.50;;;;;;5077481;28;20409;-82
2022/06/13 08:19:50;;;;;;;1.50;0.90;;;26.70;52.50;;;;;;5077431;28;20179;-81
2022/06/13 08:22:27;;;;;;;;;;;;;;;;;;;;;
2022/06/13 08:24:53;;;;;;;1.00;0.80;;;26.70;52.50;;;;;;5077715;28;20408;-82
2022/06/13 08:27:19;;;;;;;1.30;1.00;;;26.70;52.50;;;;;;5076652;28;20421;-82
2022/06/13 08:29:44;;;;;;;1.10;0.90;;;26.70;52.50;;;;;;5077260;28;20167;-82
2022/06/13 08:32:11;;;;;;;1.30;1.00;;;26.70;52.50;;;;;;5077349;28;20552;-82
2022/06/13 08:34:37;;;;;;;1.37;1.20;;;26.70;52.50;;;;;;5077584;28;20271;-82
2022/06/13 08:37:03;;;;;;;1.37;1.00;;;26.70;52.50;;;;;;5077346;28;20427;-82
2022/06/13 08:39:29;;;;;;;1.40;0.93;;;26.70;52.40;;;;;;5075911;28;20415;-86
2022/06/13 08:42:14;;;;;;;2.13;1.10;;;26.70;52.40;;;;;;5070696;28;20426;-82
2022/06/13 08:44:52;;;;;;;1.00;0.90;;;26.70;52.50;;;;;;5075649;28;20170;-83
2022/06/13 08:47:28;;;;;;;1.20;1.00;;;26.70;52.50;;;;;;5073870;28;20413;-82
2022/06/13 08:50:24;;;;;;;1.13;1.00;;;26.70;52.50;;;;;;5070688;28;20433;-82
2022/06/13 08:53:06;;;;;;;1.20;1.10;;;26.70;52.50;;;;;;5072831;28;20505;-82
2022/06/13 08:55:42;;;;;;;1.33;0.90;;;26.70;52.50;;;;;;5064450;28;20456;-81
2022/06/13 08:58:11;;;;;;;1.17;0.90;;;26.70;52.50;;;;;;5071601;28;20401;-83
2022/06/13 09:00:45;;;;;;;1.30;1.13;;;26.70;52.50;;;;;;5069031;28;20437;-83
2022/06/13 09:03:17;;;;;;;1.10;0.90;;;26.70;52.50;;;;;;5068361;28;20429;-82
2022/06/13 09:05:50;;;;;;;1.17;1.00;;;26.70;52.50;;;;;;5069575;28;20413;-81
2022/06/13 09:09:04;;;;;;;1.30;1.20;;;26.70;52.50;;;;;;5069728;28;20456;-81
2022/06/13 09:11:40;;;;;;;1.00;0.87;;;26.70;52.50;;;;;;5068715;28;20451;-82
2022/06/13 09:14:25;;;;;;;1.30;0.93;;;26.70;52.50;;;;;;5069857;28;20853;-81
2022/06/13 09:17:05;;;;;;;1.20;1.10;;;26.70;52.50;;;;;;5069332;28;20436;-81
2022/06/13 09:19:38;;;;;;;1.00;0.90;;;26.70;52.50;;;;;;5069719;28;20408;-82
2022/06/13 09:22:09;;;;;;;1.10;1.00;;;26.70;52.50;;;;;;5070911;28;20456;-82
2022/06/13 09:24:50;;;;;;;1.30;1.07;;;26.70;52.50;;;;;;5068917;28;20516;-86
2022/06/13 09:27:24;;;;;;;1.10;1.00;;;26.70;52.50;;;;;;5067832;28;20417;-82
2022/06/13 09:30:07;;;;;;;1.20;1.10;;;26.70;52.50;;;;;;5067025;28;20508;-82
2022/06/13 09:32:49;;;;;;;1.40;1.03;;;26.70;52.50;;;;;;5064341;28;20438;-82
2022/06/13 09:35:21;;;;;;;1.10;0.90;;;26.70;52.50;;;;;;5063243;28;20459;-82
2022/06/13 09:37:56;;;;;;;1.07;0.97;;;26.70;52.50;;;;;;5064315;28;20412;-82
2022/06/13 09:40:55;;;;;;;2.20;1.10;;;26.70;52.50;;;;;;5062145;28;20411;-86
2022/06/13 09:43:50;;;;;;;1.23;1.13;;;26.70;52.50;;;;;;5058017;28;20411;-83
2022/06/13 09:46:39;;;;;;;1.30;1.10;;;26.70;52.50;;;;;;5066177;28;20455;-82
2022/06/13 09:49:45;;;;;;;1.20;1.10;;;26.70;52.50;;;;;;5039993;28;20449;-82
2022/06/13 09:52:50;;;;;;;1.13;1.00;;;26.70;52.50;;;;;;5066018;28;20428;-82
2022/06/13 09:55:25;;;;;;;1.23;1.13;;;26.60;52.50;;;;;;5005486;28;20463;-82
2022/06/13 09:58:00;;;;;;;1.43;1.17;;;26.60;52.50;;;;;;4985812;28;20412;-81
2022/06/13 10:00:36;;;;;;;1.40;1.30;;;26.70;52.50;;;;;;5045622;28;20456;-82
2022/06/13 10:03:10;;;;;;;1.10;0.90;;;26.70;52.50;;;;;;5075639;28;20436;-82
2022/06/13 10:05:40;;;;;;;2.10;1.20;;;26.70;52.50;;;;;;5072257;28;20840;-82
2022/06/13 10:08:07;;;;;;;1.30;1.00;;;26.70;52.50;;;;;;5073180;28;20405;-82
2022/06/13 10:10:44;;;;;;;1.20;1.10;;;26.70;52.50;;;;;;5069875;28;20501;-83
2022/06/13 10:13:19;;;;;;;1.20;1.10;;;26.70;52.50;;;;;;5069042;28;20405;-81
2022/06/13 10:16:30;;;;;;;1.50;1.00;;;26.70;52.50;;;;;;5073269;28;20460;-81
2022/06/13 10:19:25;;;;;;;1.30;1.10;;;26.70;52.50;;;;;;5063561;28;20440;-82
2022/06/13 10:22:03;;;;;;;1.23;1.13;;;26.70;52.50;;;;;;5068883;28;20771;-82
2022/06/13 10:24:55;;;;;;;1.20;1.00;;;26.70;52.50;;;;;;5067518;28;20427;-82
2022/06/13 10:27:45;;;;;;;1.07;0.97;;;26.70;52.50;;;;;;5066403;28;20840;-81
2022/06/13 10:30:39;;;;;;;1.40;1.00;;;26.70;52.50;;;;;;5071435;28;20476;-81
2022/06/13 10:33:23;;;;;;;1.37;1.00;;;26.70;52.50;;;;;;5070679;28;20405;-82
2022/06/13 10:36:20;;;;;;;1.57;1.20;;;26.70;52.50;;;;;;5069739;28;20455;-82
2022/06/13 10:39:07;;;;;;;1.20;1.10;;;26.70;52.50;;;;;;5068938;28;20517;-82
2022/06/13 10:41:38;;;;;;;1.13;1.03;;;26.70;52.50;;;;;;5065744;28;20407;-83
2022/06/13 10:44:08;;;;;;;1.20;1.10;;;26.70;52.50;;;;;;5072661;28;20785;-82
2022/06/13 10:46:34;;;;;;;3.40;1.00;;;26.70;52.50;;;;;;5067659;28;20411;-83
2022/06/13 10:49:11;;;;;;;1.23;1.03;;;26.70;52.50;;;;;;5069519;28;20424;-82
2022/06/13 10:51:40;;;;;;;1.30;1.10;;;26.70;52.50;;;;;;5065938;28;20159;-82
2022/06/13 10:54:18;;;;;;;1.10;1.00;;;26.70;52.50;;;;;;5067883;28;20465;-83
2022/06/13 10:56:54;;;;;;;1.40;1.03;;;26.70;52.50;;;;;;5067298;28;20477;-81
2022/06/13 10:59:29;;;;;;;1.30;1.20;;;26.70;52.50;;;;;;5069047;28;20426;-81
2022/06/13 11:02:10;;;;;;;;;;;;;;;;;;;;;
2022/06/13 11:04:44;;;;;;;1.10;1.00;;;26.70;52.50;;;;;;5067800;28;20465;-81
2022/06/13 11:07:16;;;;;;;2.23;1.20;;;26.70;52.50;;;;;;5071590;28;20432;-80
2022/06/13 11:09:49;;;;;;;1.20;1.00;;;26.70;52.50;;;;;;5068825;28;20447;-82
2022/06/13 11:12:20;;;;;;;1.20;1.10;;;26.70;52.50;;;;;;5074406;28;20426;-82
2022/06/13 11:23:51;;;;;;;1.23;1.10;;;26.70;52.50;;;;;;5065284;28;20454;-83
2022/06/13 11:29:06;;;;;;;1.50;1.07;;;26.70;53.10;;;;;;5073371;28;20420;-82
2022/06/13 11:31:33;;;;;;;1.60;1.10;;;26.70;52.50;;;;;;5072681;28;20406;-81
2022/06/13 11:34:35;;;;;;;1.20;0.90;;;26.70;52.50;;;;;;5072118;28;20465;-81
2022/06/13 11:37:14;;;;;;;1.00;0.80;;;26.70;52.50;;;;;;5072562;28;20408;-81
2022/06/13 11:39:45;;;;;;;1.33;1.00;;;26.70;52.50;;;;;;5072932;28;20425;-81
2022/06/13 11:42:30;;;;;;;2.00;1.33;;;26.70;52.50;;;;;;5072785;28;20908;-81
2022/06/13 11:45:02;;;;;;;1.10;1.00;;;26.70;52.50;;;;;;5072915;28;20509;-81
2022/06/13 11:47:54;;;;;;;1.30;0.93;;;26.70;52.50;;;;;;5072768;28;20965;-81
2022/06/13 11:50:41;;;;;;;1.27;1.17;;;26.70;52.50;;;;;;5074149;28;20382;-81
2022/06/13 11:55:59;;;;;;;1.10;1.00;;;26.70;52.50;;;;;;4999381;28;20476;-81
2022/06/13 11:58:29;;;;;;;1.70;1.33;;;26.70;52.50;;;;;;4996886;28;21001;-81
2022/06/13 12:01:09;;;;;;;1.20;0.90;;;26.70;52.50;;;;;;5012572;28;20416;-81
2022/06/13 12:03:37;;;;;;;1.83;1.10;;;26.70;52.50;;;;;;4997180;28;20427;-80
2022/06/13 12:06:17;;;;;;;3.27;1.13;;;26.70;52.50;;;;;;5013039;28;20446;-81
2022/06/13 12:08:58;;;;;;;1.30;1.00;;;26.70;52.50;;;;;;4996100;28;20435;-81
2022/06/13 12:11:24;;;;;;;1.40;1.00;;;26.70;52.50;;;;;;4997593;28;20446;-82
2022/06/13 12:13:59;;;;;;;1.13;1.00;;;26.70;52.40;;;;;;4996825;28;20424;-82
2022/06/13 12:16:48;;;;;;;1.20;1.03;;;26.70;52.50;;;;;;4996139;28;20419;-82
2022/06/13 12:19:26;;;;;;;1.20;0.97;;;26.70;52.40;;;;;;4995980;28;20452;-82
2022/06/13 12:22:00;;;;;;;1.20;1.10;;;26.70;52.50;;;;;;5013103;28;20396;-82
2022/06/13 12:25:09;;;;;;;1.83;0.90;;;26.70;52.50;;;;;;4997382;28;20439;-82
2022/06/13 12:27:49;;;;;;;1.13;0.90;;;26.70;52.40;;;;;;4997366;28;20447;-82
2022/06/13 12:30:18;;;;;;;1.30;1.07;;;26.70;52.50;;;;;;5039120;28;20405;-81
2022/06/13 12:33:02;;;;;;;1.50;1.40;;;26.70;52.50;;;;;;5075481;28;20405;-81
2022/06/13 12:35:55;;;;;;;1.13;0.90;;;26.70;52.50;;;;;;5075457;28;20453;-83
2022/06/13 12:38:24;;;;;;;1.10;1.00;;;26.70;52.50;;;;;;5075957;28;20469;-82
2022/06/13 12:41:13;;;;;;;1.10;1.00;;;26.70;52.50;;;;;;5076099;28;20412;-82
2022/06/13 12:44:06;;;;;;;1.50;1.20;;;26.70;52.50;;;;;;5076464;28;20394;-82
2022/06/13 12:46:47;;;;;;;1.30;1.13;;;26.70;52.50;;;;;;5075328;28;20418;-82
2022/06/13 12:49:55;;;;;;;1.40;1.13;;;26.70;52.50;;;;;;5075883;28;20428;-82
2022/06/13 12:52:32;;;;;;;1.37;1.13;;;26.70;52.50;;;;;;5075975;28;20390;-82
2022/06/13 12:55:25;;;;;;;1.10;1.00;;;26.70;52.50;;;;;;5073712;28;20461;-82
2022/06/13 12:58:04;;;;;;;1.10;1.00;;;26.70;52.50;;;;;;5074317;28;20449;-82
2022/06/13 13:00:46;;;;;;;1.17;1.07;;;26.70;52.50;;;;;;5073236;28;20455;-82
2022/06/13 13:03:37;;;;;;;1.40;1.20;;;26.70;52.50;;;;;;5072861;28;20393;-82
2022/06/13 13:06:09;;;;;;;1.27;1.00;;;26.70;52.50;;;;;;5074618;28;20401;-82
2022/06/13 13:08:56;;;;;;;1.63;1.10;;;26.70;52.50;;;;;;5076346;28;20389;-82
2022/06/13 13:11:37;;;;;;;1.20;1.03;;;26.70;52.50;;;;;;5074326;28;20386;-82
2022/06/13 13:14:05;;;;;;;1.17;1.07;;;26.70;52.50;;;;;;5075149;28;20505;-81
2022/06/13 13:16:58;;;;;;;1.30;1.10;;;26.70;52.50;;;;;;5072593;28;20406;-81
2022/06/13 13:19:24;;;;;;;1.30;1.17;;;26.70;52.50;;;;;;5072406;28;20413;-81
2022/06/13 13:22:00;;;;;;;1.10;1.00;;;26.70;52.50;;;;;;5072931;28;20445;-81
2022/06/13 13:24:46;;;;;;;2.90;1.10;;;26.70;52.50;;;;;;5070824;28;20170;-81
2022/06/13 13:27:15;;;;;;;1.27;1.17;;;26.80;52.50;;;;;;5072530;28;20409;-81
2022/06/13 13:30:01;;;;;;;1.27;1.00;;;26.70;52.50;;;;;;5071993;28;20413;-80
2022/06/13 13:32:35;;;;;;;1.30;1.13;;;26.70;52.50;;;;;;5069992;28;20405;-81
2022/06/13 13:35:28;;;;;;;1.00;0.80;;;26.80;52.50;;;;;;5075891;28;20460;-80
2022/06/13 13:38:16;;;;;;;1.27;1.00;;;26.80;52.50;;;;;;5077459;28;20385;-81
2022/06/13 13:40:49;;;;;;;1.57;0.93;;;26.80;52.50;;;;;;5076329;28;20910;-81
2022/06/13 13:43:18;;;;;;;1.10;1.00;;;26.70;52.50;;;;;;5078021;28;20429;-81
2022/06/13 13:46:10;;;;;;;1.47;1.00;;;26.80;52.50;;;;;;5076861;28;20410;-81
2022/06/13 13:48:43;;;;;;;1.33;1.20;;;26.80;52.50;;;;;;5076118;28;20402;-81
2022/06/13 13:51:30;;;;;;;1.10;0.97;;;26.70;52.50;;;;;;5077303;28;20423;-82
2022/06/13 13:54:27;;;;;;;1.37;0.90;;;26.70;52.50;;;;;;5077384;28;20423;-82
2022/06/13 13:57:07;;;;;;;1.03;0.93;;;26.80;52.50;;;;;;5076910;28;20417;-82